Time,TemperatureF,DewpointF,PressureIn,WindDirection,WindDirectionDegrees,WindSpeedMPH,WindSpeedGustMPH,Humidity,HourlyPrecipIn,Conditions,Clouds,dailyrainin,SoftwareType,DateUTC
2017-12-18 00:02:00,48.7,48.7,30.05,South,169,11.5,11.5,100,0.01,CLR,,0.00,WeatherDisplay:10.37,2017-12-18 08:02:00,
2017-12-18 00:03:00,48.7,48.7,30.05,South,185,11.5,11.5,100,0.01,CLR,,0.01,WeatherDisplay:10.37,2017-12-18 08:03:00,
2017-12-18 00:07:00,48.8,48.8,30.05,SSE,159,12.7,12.7,100,0.02,,,0.01,WeatherDisplay:10.37,2017-12-18 08:07:00,
2017-12-18 00:09:00,48.8,48.8,30.05,SSE,168,10.4,10.4,100,0.02,,,0.01,WeatherDisplay:10.37,2017-12-18 08:09:00,
2017-12-18 00:10:00,48.8,48.8,30.05,South,173,9.2,9.2,100,0.02,RA,,0.01,WeatherDisplay:10.37,2017-12-18 08:10:00,
2017-12-18 00:15:00,48.9,48.9,30.05,SSE,168,12.7,12.7,100,0.02,,,0.01,WeatherDisplay:10.37,2017-12-18 08:15:00,
2017-12-18 00:17:00,48.9,48.9,30.05,South,171,16.1,16.1,100,0.02,CLR,,0.01,WeatherDisplay:10.37,2017-12-18 08:17:00,
2017-12-18 00:18:00,48.9,48.9,30.05,SSE,163,16.1,16.1,100,0.02,CLR,,0.01,WeatherDisplay:10.37,2017-12-18 08:18:00,
2017-12-18 00:23:00,48.9,48.9,30.04,South,189,8.1,8.1,100,0.03,RA,,0.02,WeatherDisplay:10.37,2017-12-18 08:23:00,
2017-12-18 00:27:00,48.9,48.9,30.04,SSE,152,15.0,15.0,100,0.03,RA,,0.02,WeatherDisplay:10.37,2017-12-18 08:27:00,
2017-12-18 00:32:00,48.9,48.9,30.05,South,182,13.0,13.0,100,0.03,CLR,,0.02,WeatherDisplay:10.37,2017-12-18 08:32:00,
2017-12-18 00:33:00,49.0,49.0,30.05,South,180,16.1,16.1,100,0.03,CLR,,0.02,WeatherDisplay:10.37,2017-12-18 08:33:00,
2017-12-18 00:35:00,49.0,49.0,30.04,SSW,200,15.0,15.0,100,0.03,CLR,,0.02,WeatherDisplay:10.37,2017-12-18 08:35:00,
2017-12-18 00:40:00,49.1,49.1,30.04,South,187,12.7,12.7,100,0.03,CLR,,0.02,WeatherDisplay:10.37,2017-12-18 08:40:00,
2017-12-18 00:41:00,49.1,49.1,30.04,South,186,10.4,10.4,100,0.02,CLR,,0.02,WeatherDisplay:10.37,2017-12-18 08:41:00,
2017-12-18 00:45:00,49.1,49.1,30.05,South,174,12.7,12.7,100,0.03,RA,,0.03,WeatherDisplay:10.37,2017-12-18 08:45:00,
2017-12-18 00:47:00,49.1,49.1,30.04,South,171,12.7,12.7,100,0.03,RA,,0.03,WeatherDisplay:10.37,2017-12-18 08:47:00,
2017-12-18 00:52:00,49.2,49.2,30.04,SSE,163,13.8,13.8,100,0.03,RA,,0.03,WeatherDisplay:10.37,2017-12-18 08:52:00,
2017-12-18 00:53:00,49.2,49.2,30.05,South,181,19.6,19.6,100,0.03,,,0.03,WeatherDisplay:10.37,2017-12-18 08:53:00,
2017-12-18 00:56:00,49.3,49.3,30.04,South,172,15.0,15.0,100,0.03,CLR,,0.03,WeatherDisplay:10.37,2017-12-18 08:56:00,
2017-12-18 00:59:00,49.3,49.3,30.04,South,180,19.6,19.6,100,0.03,CLR,,0.03,WeatherDisplay:10.37,2017-12-18 08:59:00,
2017-12-18 01:04:00,49.4,49.4,30.04,South,184,16.1,16.1,100,0.02,CLR,,0.03,WeatherDisplay:10.37,2017-12-18 09:04:00,
2017-12-18 01:05:00,49.4,49.4,30.05,South,173,17.3,17.3,100,0.02,CLR,,0.03,WeatherDisplay:10.37,2017-12-18 09:05:00,
2017-12-18 01:06:00,49.4,49.4,30.04,South,172,10.4,10.4,100,0.03,RA,,0.04,WeatherDisplay:10.37,2017-12-18 09:06:00,
2017-12-18 01:11:00,49.4,49.4,30.05,South,171,9.2,9.2,100,0.03,RA,,0.04,WeatherDisplay:10.37,2017-12-18 09:11:00,
2017-12-18 01:12:00,49.4,49.4,30.05,South,190,10.4,10.4,100,0.03,RA,,0.04,WeatherDisplay:10.37,2017-12-18 09:12:00,
2017-12-18 01:17:00,49.4,49.4,30.05,SSE,150,11.5,11.5,100,0.03,,,0.04,WeatherDisplay:10.37,2017-12-18 09:17:00,
2017-12-18 01:20:00,49.4,49.4,30.04,South,174,11.5,11.5,100,0.02,CLR,,0.04,WeatherDisplay:10.37,2017-12-18 09:20:00,
2017-12-18 01:25:00,49.5,49.5,30.05,SSE,157,13.0,13.0,100,0.02,CLR,,0.04,WeatherDisplay:10.37,2017-12-18 09:25:00,
2017-12-18 01:27:00,49.6,49.6,30.05,South,185,20.7,20.7,100,0.02,CLR,,0.04,WeatherDisplay:10.37,2017-12-18 09:27:00,
2017-12-18 01:32:00,49.7,49.7,30.05,SSW,192,19.6,19.6,100,0.02,CLR,,0.04,WeatherDisplay:10.37,2017-12-18 09:32:00,
2017-12-18 01:34:00,49.7,49.7,30.05,SSW,192,18.4,18.4,100,0.02,CLR,,0.04,WeatherDisplay:10.37,2017-12-18 09:34:00,
2017-12-18 01:39:00,49.7,49.7,30.05,SSW,197,15.0,15.0,100,0.02,CLR,,0.04,WeatherDisplay:10.37,2017-12-18 09:39:00,
2017-12-18 01:44:00,49.8,49.8,30.05,SSW,194,12.7,12.7,100,0.02,RA,,0.05,WeatherDisplay:10.37,2017-12-18 09:44:00,
2017-12-18 01:45:00,49.8,49.8,30.05,South,185,16.1,16.1,100,0.02,RA,,0.05,WeatherDisplay:10.37,2017-12-18 09:45:00,
2017-12-18 01:46:00,49.8,49.8,30.05,South,186,11.5,11.5,100,0.02,RA,,0.05,WeatherDisplay:10.37,2017-12-18 09:46:00,
2017-12-18 01:51:00,49.9,49.9,30.05,SSW,212,15.0,15.0,100,0.02,RA,,0.05,WeatherDisplay:10.37,2017-12-18 09:51:00,
2017-12-18 01:56:00,49.9,49.9,30.05,South,187,15.0,15.0,100,0.02,CLR,,0.05,WeatherDisplay:10.37,2017-12-18 09:56:00,
2017-12-18 01:58:00,50.0,50.0,30.05,SW,228,13.0,13.0,100,0.03,RA,,0.06,WeatherDisplay:10.37,2017-12-18 09:58:00,
2017-12-18 02:02:00,50.0,50.0,30.06,SSW,207,15.0,15.0,100,0.03,RA,,0.06,WeatherDisplay:10.37,2017-12-18 10:02:00,
2017-12-18 02:04:00,50.1,50.1,30.06,South,191,16.1,16.1,100,0.03,RA,,0.06,WeatherDisplay:10.37,2017-12-18 10:04:00,
2017-12-18 02:13:00,50.1,50.1,30.06,SSW,198,14.0,14.0,100,0.03,RA,,0.07,WeatherDisplay:10.37,2017-12-18 10:13:00,
2017-12-18 02:17:00,50.2,50.2,30.06,SSW,199,13.8,13.8,100,0.03,RA,,0.07,WeatherDisplay:10.37,2017-12-18 10:17:00,
2017-12-18 02:18:00,50.2,50.2,30.06,SSW,205,18.4,18.4,100,0.03,RA,,0.07,WeatherDisplay:10.37,2017-12-18 10:18:00,
2017-12-18 02:23:00,50.2,50.2,30.06,SSW,204,17.3,17.3,100,0.03,CLR,,0.07,WeatherDisplay:10.37,2017-12-18 10:23:00,
2017-12-18 02:26:00,50.2,50.2,30.06,SSW,192,12.7,12.7,100,0.03,CLR,,0.07,WeatherDisplay:10.37,2017-12-18 10:26:00,
2017-12-18 02:28:00,50.3,50.3,30.06,SSW,209,16.1,16.1,100,0.03,CLR,,0.07,WeatherDisplay:10.37,2017-12-18 10:28:00,
2017-12-18 02:32:00,50.3,50.3,30.06,South,191,17.3,17.3,100,0.03,CLR,,0.07,WeatherDisplay:10.37,2017-12-18 10:32:00,
2017-12-18 02:34:00,50.3,50.3,30.06,SSW,209,20.7,20.7,100,0.03,CLR,,0.07,WeatherDisplay:10.37,2017-12-18 10:34:00,
2017-12-18 02:39:00,50.3,50.3,30.06,SSW,201,11.5,11.5,100,0.04,RA,,0.08,WeatherDisplay:10.37,2017-12-18 10:39:00,
2017-12-18 02:44:00,50.3,50.3,30.06,South,190,17.3,17.3,100,0.03,RA,,0.08,WeatherDisplay:10.37,2017-12-18 10:44:00,
2017-12-18 02:48:00,50.3,50.3,30.07,SSW,209,13.8,13.8,100,0.03,CLR,,0.08,WeatherDisplay:10.37,2017-12-18 10:48:00,
2017-12-18 02:53:00,50.3,50.3,30.07,SSW,200,12.7,12.7,100,0.03,CLR,,0.08,WeatherDisplay:10.37,2017-12-18 10:53:00,
2017-12-18 02:54:00,50.3,50.3,30.07,SSW,195,12.0,12.0,100,0.03,CLR,,0.08,WeatherDisplay:10.37,2017-12-18 10:54:00,
2017-12-18 02:57:00,50.3,50.3,30.07,SSW,194,11.5,11.5,100,0.03,CLR,,0.08,WeatherDisplay:10.37,2017-12-18 10:57:00,
2017-12-18 03:02:00,50.3,50.3,30.07,SSW,207,12.7,12.7,100,0.02,CLR,,0.08,WeatherDisplay:10.37,2017-12-18 11:02:00,
2017-12-18 03:04:00,50.3,50.3,30.07,SSW,202,11.5,11.5,100,0.02,CLR,,0.08,WeatherDisplay:10.37,2017-12-18 11:04:00,
2017-12-18 03:07:00,50.4,50.4,30.07,South,175,18.4,18.4,100,0.02,CLR,,0.08,WeatherDisplay:10.37,2017-12-18 11:07:00,
2017-12-18 03:12:00,50.4,50.4,30.07,SSW,194,17.3,17.3,100,0.01,CLR,,0.08,WeatherDisplay:10.37,2017-12-18 11:12:00,
2017-12-18 03:13:00,50.4,50.4,30.07,SSW,212,13.8,13.8,100,0.01,CLR,,0.08,WeatherDisplay:10.37,2017-12-18 11:13:00,
2017-12-18 03:15:00,50.3,50.3,30.07,SSW,196,15.0,15.0,100,0.01,CLR,,0.08,WeatherDisplay:10.37,2017-12-18 11:15:00,
2017-12-18 03:18:00,50.3,50.3,30.07,SW,215,13.8,13.8,100,0.01,CLR,,0.08,WeatherDisplay:10.37,2017-12-18 11:18:00,
2017-12-18 03:23:00,50.3,50.3,30.07,SSW,200,16.0,16.0,100,0.01,CLR,,0.08,WeatherDisplay:10.37,2017-12-18 11:23:00,
2017-12-18 03:24:00,50.4,50.4,30.07,South,187,16.1,16.1,100,0.01,CLR,,0.08,WeatherDisplay:10.37,2017-12-18 11:24:00,
2017-12-18 03:29:00,50.4,50.4,30.07,SW,214,13.8,13.8,100,0.02,RA,,0.09,WeatherDisplay:10.37,2017-12-18 11:29:00,
2017-12-18 03:34:00,50.3,50.3,30.07,South,190,18.4,18.4,100,0.02,RA,,0.09,WeatherDisplay:10.37,2017-12-18 11:34:00,
2017-12-18 03:38:00,50.4,50.4,30.07,SSW,208,16.1,16.1,100,0.01,,,0.09,WeatherDisplay:10.37,2017-12-18 11:38:00,
2017-12-18 03:43:00,50.3,50.3,30.08,SSW,204,12.0,12.0,100,0.01,CLR,,0.09,WeatherDisplay:10.37,2017-12-18 11:43:00,
2017-12-18 03:48:00,50.3,50.3,30.07,SSW,193,17.3,17.3,100,0.01,CLR,,0.09,WeatherDisplay:10.37,2017-12-18 11:48:00,
2017-12-18 03:49:00,50.3,50.3,30.07,SSW,206,17.3,17.3,100,0.01,CLR,,0.09,WeatherDisplay:10.37,2017-12-18 11:49:00,
2017-12-18 03:52:00,50.4,50.4,30.07,South,171,15.0,15.0,100,0.01,CLR,,0.09,WeatherDisplay:10.37,2017-12-18 11:52:00,
2017-12-18 03:54:00,50.4,50.4,30.07,SSW,205,15.0,15.0,100,0.01,CLR,,0.09,WeatherDisplay:10.37,2017-12-18 11:54:00,
2017-12-18 03:59:00,50.4,50.4,30.08,South,189,13.8,13.8,100,0.01,CLR,,0.09,WeatherDisplay:10.37,2017-12-18 11:59:00,
2017-12-18 04:02:00,50.4,50.4,30.07,SSW,208,16.1,16.1,100,0.01,CLR,,0.09,WeatherDisplay:10.37,2017-12-18 12:02:00,
2017-12-18 04:07:00,50.4,50.4,30.08,SW,224,16.1,16.1,100,0.01,CLR,,0.09,WeatherDisplay:10.37,2017-12-18 12:07:00,
2017-12-18 04:08:00,50.4,50.4,30.07,SSW,205,14.0,14.0,100,0.01,CLR,,0.09,WeatherDisplay:10.37,2017-12-18 12:08:00,
2017-12-18 04:10:00,50.4,50.4,30.08,SW,218,12.7,12.7,100,0.01,CLR,,0.09,WeatherDisplay:10.37,2017-12-18 12:10:00,
2017-12-18 04:13:00,50.4,50.4,30.08,SSW,207,14.0,14.0,100,0.01,CLR,,0.09,WeatherDisplay:10.37,2017-12-18 12:13:00,
2017-12-18 04:18:00,50.4,50.4,30.08,SSW,208,13.8,13.8,100,0.01,CLR,,0.09,WeatherDisplay:10.37,2017-12-18 12:18:00,
2017-12-18 04:20:00,50.4,50.4,30.08,SW,219,16.1,16.1,100,0.01,CLR,,0.09,WeatherDisplay:10.37,2017-12-18 12:20:00,
2017-12-18 04:24:00,50.5,50.5,30.08,South,170,13.8,13.8,100,0.01,CLR,,0.09,WeatherDisplay:10.37,2017-12-18 12:24:00,
2017-12-18 04:26:00,50.5,50.5,30.08,SSW,199,15.0,15.0,100,0.01,CLR,,0.09,WeatherDisplay:10.37,2017-12-18 12:26:00,
2017-12-18 04:31:00,50.4,50.4,30.08,South,183,13.8,13.8,100,0.00,CLR,,0.09,WeatherDisplay:10.37,2017-12-18 12:31:00,
2017-12-18 04:33:00,50.5,50.5,30.07,SSW,203,12.7,13.7,100,0.00,CLR,,0.09,WeatherDisplay:10.37,2017-12-18 12:33:00,
2017-12-18 04:38:00,50.5,50.5,30.07,SSW,209,15.0,15.0,100,0.00,CLR,,0.09,WeatherDisplay:10.37,2017-12-18 12:38:00,
2017-12-18 04:39:00,50.5,50.5,30.07,SSW,209,18.4,18.4,100,0.00,CLR,,0.09,WeatherDisplay:10.37,2017-12-18 12:39:00,
2017-12-18 04:43:00,50.5,50.5,30.07,SW,224,13.8,13.8,100,0.00,CLR,,0.09,WeatherDisplay:10.37,2017-12-18 12:43:00,
2017-12-18 04:45:00,50.5,50.5,30.08,SW,234,15.0,15.0,100,0.00,CLR,,0.09,WeatherDisplay:10.37,2017-12-18 12:45:00,
2017-12-18 04:49:00,50.4,50.4,30.08,SW,224,13.8,13.8,100,0.00,CLR,,0.09,WeatherDisplay:10.37,2017-12-18 12:49:00,
2017-12-18 04:51:00,50.4,50.4,30.08,SW,220,16.1,16.1,100,0.00,CLR,,0.09,WeatherDisplay:10.37,2017-12-18 12:51:00,
2017-12-18 04:56:00,50.4,50.4,30.08,SW,224,15.0,15.0,100,0.00,CLR,,0.09,WeatherDisplay:10.37,2017-12-18 12:56:00,
2017-12-18 04:57:00,50.4,50.4,30.07,WSW,239,15.0,15.0,100,0.00,CLR,,0.09,WeatherDisplay:10.37,2017-12-18 12:57:00,
2017-12-18 05:00:00,50.4,50.4,30.08,SSW,205,11.5,11.5,100,0.00,CLR,,0.09,WeatherDisplay:10.37,2017-12-18 13:00:00,
2017-12-18 05:05:00,50.5,50.5,30.08,SSW,213,16.1,16.1,100,0.00,CLR,,0.09,WeatherDisplay:10.37,2017-12-18 13:05:00,
2017-12-18 05:07:00,50.4,50.4,30.07,SSW,211,17.3,17.3,100,0.00,CLR,,0.09,WeatherDisplay:10.37,2017-12-18 13:07:00,
2017-12-18 05:12:00,50.4,50.4,30.07,SSW,213,13.8,13.8,100,0.00,CLR,,0.09,WeatherDisplay:10.37,2017-12-18 13:12:00,
2017-12-18 05:15:00,50.4,50.4,30.08,SSW,210,17.3,17.3,100,0.00,CLR,,0.09,WeatherDisplay:10.37,2017-12-18 13:15:00,
2017-12-18 05:17:00,50.4,50.4,30.07,SSW,203,15.0,15.0,100,0.00,CLR,,0.09,WeatherDisplay:10.37,2017-12-18 13:17:00,
2017-12-18 05:21:00,50.3,50.3,30.07,SSW,211,15.0,15.0,100,0.00,CLR,,0.09,WeatherDisplay:10.37,2017-12-18 13:21:00,
2017-12-18 05:24:00,50.3,50.3,30.07,SSW,201,11.5,11.5,100,0.00,CLR,,0.09,WeatherDisplay:10.37,2017-12-18 13:24:00,
2017-12-18 05:28:00,50.3,50.3,30.07,SSW,203,12.7,12.7,100,0.00,CLR,,0.09,WeatherDisplay:10.37,2017-12-18 13:28:00,
2017-12-18 05:33:00,50.3,50.3,30.08,SSW,202,10.4,10.4,100,0.00,CLR,,0.09,WeatherDisplay:10.37,2017-12-18 13:33:00,
2017-12-18 05:38:00,50.4,50.4,30.08,SW,220,13.8,13.8,100,0.00,CLR,,0.09,WeatherDisplay:10.37,2017-12-18 13:38:00,
2017-12-18 05:39:00,50.4,50.4,30.08,SSW,195,13.8,13.8,100,0.00,CLR,,0.09,WeatherDisplay:10.37,2017-12-18 13:39:00,
2017-12-18 05:44:00,50.3,50.3,30.07,SW,218,16.1,16.1,100,0.00,CLR,,0.09,WeatherDisplay:10.37,2017-12-18 13:44:00,
2017-12-18 05:48:00,50.3,50.3,30.08,SSW,205,12.0,12.0,100,0.00,CLR,,0.09,WeatherDisplay:10.37,2017-12-18 13:48:00,
2017-12-18 05:50:00,50.3,50.3,30.08,SSW,197,12.7,12.7,100,0.01,RA,,0.10,WeatherDisplay:10.37,2017-12-18 13:50:00,
2017-12-18 05:55:00,50.3,50.3,30.08,SSW,209,13.8,13.8,100,0.01,RA,,0.10,WeatherDisplay:10.37,2017-12-18 13:55:00,
2017-12-18 06:00:00,50.3,50.3,30.07,SSW,203,16.1,16.1,100,0.01,,,0.10,WeatherDisplay:10.37,2017-12-18 14:00:00,
2017-12-18 06:02:00,50.3,50.3,30.07,SW,221,9.0,9.0,100,0.01,CLR,,0.10,WeatherDisplay:10.37,2017-12-18 14:02:00,
2017-12-18 06:04:00,50.3,50.3,30.07,SW,235,11.5,11.5,100,0.01,CLR,,0.10,WeatherDisplay:10.37,2017-12-18 14:04:00,
2017-12-18 06:08:00,50.3,50.3,30.07,WSW,250,10.4,10.4,100,0.01,CLR,,0.10,WeatherDisplay:10.37,2017-12-18 14:08:00,
2017-12-18 06:09:00,50.4,50.4,30.07,WSW,244,8.1,8.1,100,0.01,CLR,,0.10,WeatherDisplay:10.37,2017-12-18 14:09:00,
2017-12-18 06:14:00,50.3,50.3,30.07,WSW,245,11.5,11.5,100,0.02,RA,,0.11,WeatherDisplay:10.37,2017-12-18 14:14:00,
2017-12-18 06:19:00,50.3,50.3,30.08,SW,234,8.1,8.1,100,0.02,RA,,0.11,WeatherDisplay:10.37,2017-12-18 14:19:00,
2017-12-18 06:24:00,50.3,50.3,30.08,WSW,255,10.4,10.4,100,0.02,,,0.11,WeatherDisplay:10.37,2017-12-18 14:24:00,
2017-12-18 06:25:00,50.3,50.3,30.08,SSW,208,8.1,8.1,100,0.02,CLR,,0.11,WeatherDisplay:10.37,2017-12-18 14:25:00,
2017-12-18 06:28:00,50.2,50.2,30.08,SW,226,11.5,11.5,100,0.02,CLR,,0.11,WeatherDisplay:10.37,2017-12-18 14:28:00,
2017-12-18 06:31:00,50.2,50.2,30.08,SW,216,9.2,9.2,100,0.02,CLR,,0.11,WeatherDisplay:10.37,2017-12-18 14:31:00,
2017-12-18 06:36:00,50.2,50.2,30.08,SSW,203,11.5,11.5,100,0.02,CLR,,0.11,WeatherDisplay:10.37,2017-12-18 14:36:00,
2017-12-18 06:41:00,50.1,50.1,30.09,SW,234,11.5,11.5,100,0.02,CLR,,0.11,WeatherDisplay:10.37,2017-12-18 14:41:00,
2017-12-18 06:42:00,50.1,50.1,30.08,SW,228,10.0,10.0,100,0.02,CLR,,0.11,WeatherDisplay:10.37,2017-12-18 14:42:00,
2017-12-18 06:47:00,50.1,50.1,30.08,SSW,199,11.5,11.5,100,0.02,CLR,,0.11,WeatherDisplay:10.37,2017-12-18 14:47:00,
2017-12-18 06:52:00,50.0,50.0,30.08,SW,231,9.2,9.2,100,0.01,CLR,,0.11,WeatherDisplay:10.37,2017-12-18 14:52:00,
2017-12-18 06:54:00,50.0,50.0,30.08,WSW,242,8.1,8.1,100,0.01,CLR,,0.11,WeatherDisplay:10.37,2017-12-18 14:54:00,
2017-12-18 06:59:00,50.1,50.1,30.09,SSW,212,10.4,10.4,100,0.01,CLR,,0.11,WeatherDisplay:10.37,2017-12-18 14:59:00,
2017-12-18 07:00:00,50.1,50.1,30.09,SSW,199,10.4,10.4,100,0.01,CLR,,0.11,WeatherDisplay:10.37,2017-12-18 15:00:00,
2017-12-18 07:01:00,50.1,50.1,30.09,SSW,196,11.5,11.5,100,0.01,CLR,,0.11,WeatherDisplay:10.37,2017-12-18 15:01:00,
2017-12-18 07:06:00,50.1,50.1,30.09,SSW,198,6.9,6.9,100,0.01,CLR,,0.11,WeatherDisplay:10.37,2017-12-18 15:06:00,
2017-12-18 07:11:00,50.1,50.1,30.10,SW,227,11.5,11.5,100,0.01,CLR,,0.11,WeatherDisplay:10.37,2017-12-18 15:11:00,
2017-12-18 07:13:00,50.1,50.1,30.10,West,260,9.2,9.2,100,0.01,CLR,,0.11,WeatherDisplay:10.37,2017-12-18 15:13:00,
2017-12-18 07:17:00,50.0,50.0,30.10,WSW,252,11.5,11.5,100,0.00,CLR,,0.11,WeatherDisplay:10.37,2017-12-18 15:17:00,
2017-12-18 07:18:00,50.1,50.1,30.10,West,263,6.9,6.9,100,0.00,CLR,,0.11,WeatherDisplay:10.37,2017-12-18 15:18:00,
2017-12-18 07:22:00,50.0,50.0,30.10,SW,215,6.9,6.9,100,0.00,CLR,,0.11,WeatherDisplay:10.37,2017-12-18 15:22:00,
2017-12-18 07:27:00,49.9,49.9,30.10,WSW,241,9.2,9.2,100,0.00,CLR,,0.11,WeatherDisplay:10.37,2017-12-18 15:27:00,
2017-12-18 07:32:00,49.9,49.9,30.10,West,263,10.4,10.4,100,0.00,CLR,,0.11,WeatherDisplay:10.37,2017-12-18 15:32:00,
2017-12-18 07:37:00,49.8,49.8,30.10,WSW,249,9.2,9.2,100,0.00,CLR,,0.11,WeatherDisplay:10.37,2017-12-18 15:37:00,
2017-12-18 07:38:00,49.8,49.8,30.11,WSW,241,9.2,9.2,100,0.00,CLR,,0.11,WeatherDisplay:10.37,2017-12-18 15:38:00,
2017-12-18 07:43:00,49.8,49.8,30.10,West,278,5.8,5.8,100,0.00,CLR,,0.11,WeatherDisplay:10.37,2017-12-18 15:43:00,
2017-12-18 07:44:00,49.7,49.7,30.10,West,272,3.5,3.5,100,0.00,CLR,,0.11,WeatherDisplay:10.37,2017-12-18 15:44:00,
2017-12-18 07:49:00,49.6,49.6,30.10,SW,234,5.8,5.8,100,0.00,CLR,,0.11,WeatherDisplay:10.37,2017-12-18 15:49:00,
2017-12-18 07:50:00,49.5,49.5,30.10,WSW,245,6.9,6.9,100,0.00,CLR,,0.11,WeatherDisplay:10.37,2017-12-18 15:50:00,
2017-12-18 07:55:00,49.4,49.4,30.10,WSW,247,0.0,0.1,100,0.00,CLR,,0.11,WeatherDisplay:10.37,2017-12-18 15:55:00,
2017-12-18 07:56:00,49.4,49.4,30.10,West,268,6.9,6.9,100,0.00,CLR,,0.11,WeatherDisplay:10.37,2017-12-18 15:56:00,
2017-12-18 08:02:00,49.2,49.2,30.10,West,262,3.5,0.0,100,0.00,CLR,,0.11,WeatherDisplay:10.37,2017-12-18 16:02:00,
2017-12-18 08:03:00,49.2,49.2,30.10,West,262,0.0,0.0,100,0.00,CLR,,0.11,WeatherDisplay:10.37,2017-12-18 16:03:00,
2017-12-18 08:08:00,49.2,49.2,30.10,West,262,0.0,0.0,100,0.00,CLR,,0.11,WeatherDisplay:10.37,2017-12-18 16:08:00,
2017-12-18 08:09:00,49.2,49.2,30.10,West,262,0.0,0.0,100,0.00,CLR,,0.11,WeatherDisplay:10.37,2017-12-18 16:09:00,
2017-12-18 08:14:00,49.3,49.3,30.11,West,262,0.0,0.0,100,0.00,CLR,,0.11,WeatherDisplay:10.37,2017-12-18 16:14:00,
2017-12-18 08:16:00,49.2,49.2,30.11,West,262,0.0,0.0,100,0.00,CLR,,0.11,WeatherDisplay:10.37,2017-12-18 16:16:00,
2017-12-18 08:20:00,49.2,49.2,30.11,West,262,4.0,4.0,100,0.00,CLR,,0.11,WeatherDisplay:10.37,2017-12-18 16:20:00,
2017-12-18 08:24:00,49.0,49.0,30.11,West,262,0.0,0.0,100,0.00,CLR,,0.11,WeatherDisplay:10.37,2017-12-18 16:24:00,
2017-12-18 08:27:00,49.0,49.0,30.11,West,262,0.0,0.0,100,0.00,CLR,,0.11,WeatherDisplay:10.37,2017-12-18 16:27:00,
2017-12-18 08:33:00,49.0,49.0,30.11,West,262,0.0,0.0,100,0.00,CLR,,0.11,WeatherDisplay:10.37,2017-12-18 16:33:00,
2017-12-18 08:35:00,49.0,49.0,30.11,West,262,0.0,0.0,100,0.00,CLR,,0.11,WeatherDisplay:10.37,2017-12-18 16:35:00,
2017-12-18 08:40:00,49.0,49.0,30.11,West,262,0.0,0.0,100,0.00,CLR,,0.11,WeatherDisplay:10.37,2017-12-18 16:40:00,
2017-12-18 08:42:00,49.0,49.0,30.11,West,262,0.0,0.0,100,0.00,CLR,,0.11,WeatherDisplay:10.37,2017-12-18 16:42:00,
2017-12-18 08:47:00,48.9,48.9,30.12,West,262,0.0,0.0,100,0.00,CLR,,0.11,WeatherDisplay:10.37,2017-12-18 16:47:00,
2017-12-18 08:50:00,49.0,49.0,30.12,West,262,0.0,0.0,100,0.00,CLR,,0.11,WeatherDisplay:10.37,2017-12-18 16:50:00,
2017-12-18 08:53:00,48.9,48.9,30.12,West,262,0.0,0.0,100,0.00,CLR,,0.11,WeatherDisplay:10.37,2017-12-18 16:53:00,
2017-12-18 08:58:00,49.0,49.0,30.12,West,262,0.0,0.0,100,0.00,CLR,,0.11,WeatherDisplay:10.37,2017-12-18 16:58:00,
2017-12-18 08:59:00,49.0,49.0,30.12,West,262,0.0,0.0,100,0.00,CLR,,0.11,WeatherDisplay:10.37,2017-12-18 16:59:00,
2017-12-18 09:04:00,48.9,48.9,30.13,West,262,2.3,0.0,100,0.01,RA,,0.12,WeatherDisplay:10.37,2017-12-18 17:04:00,
2017-12-18 09:06:00,48.9,48.9,30.13,West,262,0.0,0.0,100,0.01,RA,,0.12,WeatherDisplay:10.37,2017-12-18 17:06:00,
2017-12-18 09:08:00,48.8,48.8,30.13,West,262,0.0,0.0,100,0.01,RA,,0.12,WeatherDisplay:10.37,2017-12-18 17:08:00,
2017-12-18 09:11:00,48.8,48.8,30.13,West,262,3.0,3.0,100,0.01,RA,,0.12,WeatherDisplay:10.37,2017-12-18 17:11:00,
2017-12-18 09:15:00,48.7,48.7,30.14,West,263,0.0,0.0,100,0.01,CLR,,0.12,WeatherDisplay:10.37,2017-12-18 17:15:00,
2017-12-18 09:17:00,48.7,48.7,30.14,West,262,0.0,0.0,100,0.01,CLR,,0.12,WeatherDisplay:10.37,2017-12-18 17:17:00,
2017-12-18 09:22:00,48.7,48.7,30.14,West,262,0.0,0.0,100,0.01,CLR,,0.12,WeatherDisplay:10.37,2017-12-18 17:22:00,
2017-12-18 09:23:00,48.8,48.8,30.14,West,262,0.0,0.0,100,0.01,CLR,,0.12,WeatherDisplay:10.37,2017-12-18 17:23:00,
2017-12-18 09:24:00,48.8,48.8,30.14,West,262,0.0,0.0,100,0.01,CLR,,0.12,WeatherDisplay:10.37,2017-12-18 17:24:00,
2017-12-18 09:29:00,48.8,48.8,30.14,West,262,0.0,0.0,100,0.01,CLR,,0.12,WeatherDisplay:10.37,2017-12-18 17:29:00,
2017-12-18 09:34:00,48.9,48.9,30.14,West,262,0.0,0.2,100,0.01,CLR,,0.12,WeatherDisplay:10.37,2017-12-18 17:34:00,
2017-12-18 09:35:00,48.9,48.9,30.14,West,262,1.1,0.0,100,0.01,CLR,,0.12,WeatherDisplay:10.37,2017-12-18 17:35:00,
2017-12-18 09:40:00,48.9,48.9,30.14,West,262,0.0,0.0,100,0.01,CLR,,0.12,WeatherDisplay:10.37,2017-12-18 17:40:00,
2017-12-18 09:42:00,49.0,49.0,30.14,West,262,0.0,0.0,100,0.01,CLR,,0.12,WeatherDisplay:10.37,2017-12-18 17:42:00,
2017-12-18 09:47:00,49.0,49.0,30.15,West,262,0.0,0.0,100,0.01,CLR,,0.12,WeatherDisplay:10.37,2017-12-18 17:47:00,
2017-12-18 09:48:00,49.0,49.0,30.15,West,262,0.0,0.0,100,0.01,CLR,,0.12,WeatherDisplay:10.37,2017-12-18 17:48:00,
2017-12-18 09:53:00,48.9,48.9,30.15,West,262,0.0,0.0,100,0.01,CLR,,0.12,WeatherDisplay:10.37,2017-12-18 17:53:00,
2017-12-18 09:55:00,48.9,48.9,30.15,West,262,0.0,0.0,100,0.01,CLR,,0.12,WeatherDisplay:10.37,2017-12-18 17:55:00,
2017-12-18 10:00:00,48.9,48.9,30.16,West,262,0.0,0.0,100,0.01,CLR,,0.12,WeatherDisplay:10.37,2017-12-18 18:00:00,
2017-12-18 10:01:00,48.9,48.9,30.15,West,262,0.0,0.0,100,0.01,CLR,,0.12,WeatherDisplay:10.37,2017-12-18 18:01:00,
2017-12-18 10:03:00,48.9,48.9,30.15,West,263,0.0,0.0,100,0.00,CLR,,0.12,WeatherDisplay:10.37,2017-12-18 18:03:00,
2017-12-18 10:08:00,49.0,49.0,30.15,West,262,0.0,0.0,100,0.00,CLR,,0.12,WeatherDisplay:10.37,2017-12-18 18:08:00,
2017-12-18 10:13:00,49.1,49.1,30.15,West,262,0.0,0.0,100,0.00,CLR,,0.12,WeatherDisplay:10.37,2017-12-18 18:13:00,
2017-12-18 10:18:00,49.1,49.1,30.15,West,262,0.0,0.0,100,0.00,CLR,,0.12,WeatherDisplay:10.37,2017-12-18 18:18:00,
2017-12-18 10:19:00,49.2,49.2,30.15,West,262,0.0,0.0,100,0.00,CLR,,0.12,WeatherDisplay:10.37,2017-12-18 18:19:00,
2017-12-18 10:24:00,49.2,49.2,30.15,West,262,0.0,0.0,100,0.00,CLR,,0.12,WeatherDisplay:10.37,2017-12-18 18:24:00,
2017-12-18 10:27:00,49.2,49.2,30.15,West,262,0.0,0.0,100,0.00,CLR,,0.12,WeatherDisplay:10.37,2017-12-18 18:27:00,
2017-12-18 10:28:00,49.3,49.3,30.15,West,262,0.0,0.0,100,0.00,CLR,,0.12,WeatherDisplay:10.37,2017-12-18 18:28:00,
2017-12-18 10:33:00,49.4,49.4,30.16,West,262,0.0,0.0,100,0.00,CLR,,0.12,WeatherDisplay:10.37,2017-12-18 18:33:00,
2017-12-18 10:34:00,49.4,49.4,30.16,West,262,0.0,0.0,100,0.00,CLR,,0.12,WeatherDisplay:10.37,2017-12-18 18:34:00,
2017-12-18 10:39:00,49.6,49.6,30.16,West,262,0.0,0.0,100,0.00,CLR,,0.12,WeatherDisplay:10.37,2017-12-18 18:39:00,
2017-12-18 10:44:00,49.7,49.7,30.16,West,262,0.0,0.0,100,0.00,CLR,,0.12,WeatherDisplay:10.37,2017-12-18 18:44:00,
2017-12-18 10:46:00,49.7,49.7,30.15,West,262,0.0,0.0,100,0.00,CLR,,0.12,WeatherDisplay:10.37,2017-12-18 18:46:00,
2017-12-18 10:48:00,49.7,49.7,30.15,West,262,0.0,0.0,100,0.00,CLR,,0.12,WeatherDisplay:10.37,2017-12-18 18:48:00,
2017-12-18 10:53:00,49.7,49.7,30.16,West,262,0.0,0.0,100,0.00,CLR,,0.12,WeatherDisplay:10.37,2017-12-18 18:53:00,
2017-12-18 10:58:00,49.7,49.7,30.16,West,262,0.0,0.0,100,0.00,CLR,,0.12,WeatherDisplay:10.37,2017-12-18 18:58:00,
2017-12-18 10:59:00,49.7,49.7,30.17,West,263,0.0,0.0,100,0.00,CLR,,0.12,WeatherDisplay:10.37,2017-12-18 18:59:00,
2017-12-18 11:04:00,49.8,49.8,30.17,West,263,0.0,0.0,100,0.00,CLR,,0.12,WeatherDisplay:10.37,2017-12-18 19:04:00,
2017-12-18 11:09:00,49.8,49.8,30.16,West,262,0.0,0.0,100,0.00,CLR,,0.12,WeatherDisplay:10.37,2017-12-18 19:09:00,
2017-12-18 11:12:00,49.8,49.8,30.16,West,262,0.0,0.0,100,0.00,CLR,,0.12,WeatherDisplay:10.37,2017-12-18 19:12:00,
2017-12-18 11:14:00,49.8,49.8,30.16,West,262,0.0,0.0,100,0.00,CLR,,0.12,WeatherDisplay:10.37,2017-12-18 19:14:00,
2017-12-18 11:19:00,49.9,49.9,30.16,West,262,0.0,0.0,100,0.00,CLR,,0.12,WeatherDisplay:10.37,2017-12-18 19:19:00,
2017-12-18 11:22:00,49.9,49.9,30.16,West,262,0.0,0.0,100,0.00,CLR,,0.12,WeatherDisplay:10.37,2017-12-18 19:22:00,
2017-12-18 11:23:00,49.9,49.9,30.16,West,263,0.0,0.0,100,0.00,CLR,,0.12,WeatherDisplay:10.37,2017-12-18 19:23:00,
2017-12-18 11:28:00,49.9,49.9,30.16,West,262,0.0,0.0,100,0.00,CLR,,0.12,WeatherDisplay:10.37,2017-12-18 19:28:00,
2017-12-18 11:29:00,49.9,49.9,30.16,West,262,0.0,0.0,100,0.00,CLR,,0.12,WeatherDisplay:10.37,2017-12-18 19:29:00,
2017-12-18 11:30:00,50.0,50.0,30.16,West,262,0.0,0.0,100,0.00,CLR,,0.12,WeatherDisplay:10.37,2017-12-18 19:30:00,
2017-12-18 11:34:00,50.0,50.0,30.16,West,262,0.0,0.0,100,0.00,CLR,,0.12,WeatherDisplay:10.37,2017-12-18 19:34:00,
2017-12-18 11:36:00,50.1,50.1,30.16,West,262,0.0,0.0,100,0.00,CLR,,0.12,WeatherDisplay:10.37,2017-12-18 19:36:00,
2017-12-18 11:39:00,50.1,50.1,30.16,West,262,0.0,0.0,100,0.00,CLR,,0.12,WeatherDisplay:10.37,2017-12-18 19:39:00,
2017-12-18 11:44:00,50.1,50.1,30.16,West,262,0.0,0.0,100,0.00,CLR,,0.12,WeatherDisplay:10.37,2017-12-18 19:44:00,
2017-12-18 11:49:00,50.2,50.2,30.16,West,262,0.0,0.0,100,0.00,CLR,,0.12,WeatherDisplay:10.37,2017-12-18 19:49:00,
2017-12-18 11:52:00,50.3,50.3,30.16,West,262,0.0,0.0,100,0.00,CLR,,0.12,WeatherDisplay:10.37,2017-12-18 19:52:00,
2017-12-18 11:57:00,50.3,50.3,30.15,West,263,0.0,0.0,100,0.00,CLR,,0.12,WeatherDisplay:10.37,2017-12-18 19:57:00,
2017-12-18 12:02:00,50.4,50.4,30.14,West,263,0.0,0.0,100,0.00,CLR,,0.12,WeatherDisplay:10.37,2017-12-18 20:02:00,
2017-12-18 12:03:00,50.4,50.4,30.14,West,262,0.0,0.0,100,0.00,CLR,,0.12,WeatherDisplay:10.37,2017-12-18 20:03:00,
2017-12-18 12:08:00,50.4,50.4,30.14,West,262,0.0,0.0,100,0.00,CLR,,0.12,WeatherDisplay:10.37,2017-12-18 20:08:00,
2017-12-18 12:09:00,50.4,50.4,30.14,West,262,0.0,0.0,100,0.00,CLR,,0.12,WeatherDisplay:10.37,2017-12-18 20:09:00,
2017-12-18 12:14:00,50.6,50.6,30.13,West,262,0.0,0.0,100,0.00,CLR,,0.12,WeatherDisplay:10.37,2017-12-18 20:14:00,
2017-12-18 12:15:00,50.6,50.6,30.13,West,262,0.0,0.0,100,0.00,CLR,,0.12,WeatherDisplay:10.37,2017-12-18 20:15:00,
2017-12-18 12:20:00,50.8,50.8,30.13,West,262,0.0,0.0,100,0.00,CLR,,0.12,WeatherDisplay:10.37,2017-12-18 20:20:00,
2017-12-18 12:21:00,50.8,50.8,30.13,West,262,0.0,0.0,100,0.00,CLR,,0.12,WeatherDisplay:10.37,2017-12-18 20:21:00,
2017-12-18 12:26:00,51.1,51.1,30.13,West,263,0.0,0.0,100,0.00,CLR,,0.12,WeatherDisplay:10.37,2017-12-18 20:26:00,
2017-12-18 12:27:00,51.1,51.1,30.13,West,263,0.0,0.0,100,0.00,CLR,,0.12,WeatherDisplay:10.37,2017-12-18 20:27:00,
2017-12-18 12:31:00,51.2,51.2,30.13,West,262,0.0,0.0,100,0.00,CLR,,0.12,WeatherDisplay:10.37,2017-12-18 20:31:00,
2017-12-18 12:32:00,51.2,51.2,30.13,West,262,0.0,0.0,100,0.00,CLR,,0.12,WeatherDisplay:10.37,2017-12-18 20:32:00,
2017-12-18 12:33:00,51.2,51.2,30.13,West,262,0.0,0.0,100,0.00,CLR,,0.12,WeatherDisplay:10.37,2017-12-18 20:33:00,
2017-12-18 12:38:00,51.3,51.3,30.13,West,262,0.0,0.0,100,0.00,CLR,,0.12,WeatherDisplay:10.37,2017-12-18 20:38:00,
2017-12-18 12:43:00,51.5,51.5,30.13,West,262,0.0,0.0,100,0.00,CLR,,0.12,WeatherDisplay:10.37,2017-12-18 20:43:00,
2017-12-18 12:44:00,51.5,51.5,30.13,West,262,0.0,0.0,100,0.00,CLR,,0.12,WeatherDisplay:10.37,2017-12-18 20:44:00,
2017-12-18 12:46:00,51.5,51.5,30.13,West,262,0.0,0.0,100,0.00,CLR,,0.12,WeatherDisplay:10.37,2017-12-18 20:46:00,
2017-12-18 12:51:00,51.3,51.3,30.13,West,262,0.0,0.0,100,0.00,CLR,,0.12,WeatherDisplay:10.37,2017-12-18 20:51:00,
2017-12-18 12:57:00,51.3,51.3,30.13,West,262,0.0,0.0,100,0.00,CLR,,0.12,WeatherDisplay:10.37,2017-12-18 20:57:00,
2017-12-18 13:02:00,51.3,51.3,30.12,West,262,0.0,0.0,100,0.00,CLR,,0.12,WeatherDisplay:10.37,2017-12-18 21:02:00,
2017-12-18 13:05:00,51.3,51.3,30.12,West,263,0.0,0.0,100,0.00,CLR,,0.12,WeatherDisplay:10.37,2017-12-18 21:05:00,
2017-12-18 13:10:00,51.3,51.3,30.12,West,262,0.0,0.0,100,0.00,CLR,,0.12,WeatherDisplay:10.37,2017-12-18 21:10:00,
2017-12-18 13:12:00,51.3,51.3,30.12,West,262,0.0,0.0,100,0.00,CLR,,0.12,WeatherDisplay:10.37,2017-12-18 21:12:00,
2017-12-18 13:13:00,51.3,51.3,30.12,West,262,0.0,0.0,100,0.00,CLR,,0.12,WeatherDisplay:10.37,2017-12-18 21:13:00,